sensor_id;sensor_type;location;lat;lon;timestamp;pressure;altitude;pressure_sealevel;temperature;humidity
51289;BME280;37372;52.294;5.152;2023-04-21T00:01:23;101670.97;;;7.86;80.12
51289;BME280;37372;52.294;5.152;2023-04-21T00:03:48;101647.22;;;7.87;79.96
51289;BME280;37372;52.294;5.152;2023-04-21T00:06:14;101652.84;;;7.85;80.70
51289;BME280;37372;52.294;5.152;2023-04-21T00:08:46;101645.34;;;7.87;81.31
51289;BME280;37372;52.294;5.152;2023-04-21T00:11:13;101635.25;;;7.88;80.66
51289;BME280;37372;52.294;5.152;2023-04-21T00:13:39;101638.19;;;7.86;81.44
51289;BME280;37372;52.294;5.152;2023-04-21T00:16:05;101633.09;;;7.83;80.94
51289;BME280;37372;52.294;5.152;2023-04-21T00:18:31;101631.97;;;7.78;81.72
51289;BME280;37372;52.294;5.152;2023-04-21T00:20:57;101632.44;;;7.81;83.04
51289;BME280;37372;52.294;5.152;2023-04-21T00:23:22;101627.75;;;7.75;82.16
51289;BME280;37372;52.294;5.152;2023-04-21T00:25:48;101627.50;;;7.70;82.50
51289;BME280;37372;52.294;5.152;2023-04-21T00:28:14;101620.78;;;7.73;83.76
51289;BME280;37372;52.294;5.152;2023-04-21T00:30:40;101616.13;;;7.67;83.88
51289;BME280;37372;52.294;5.152;2023-04-21T00:33:06;101605.78;;;7.62;84.55
51289;BME280;37372;52.294;5.152;2023-04-21T00:35:31;101609.06;;;7.57;84.89
51289;BME280;37372;52.294;5.152;2023-04-21T00:38:03;101600.44;;;7.54;84.97
51289;BME280;37372;52.294;5.152;2023-04-21T00:40:32;101592.25;;;7.54;84.89
51289;BME280;37372;52.294;5.152;2023-04-21T00:43:01;101602.69;;;7.50;84.57
51289;BME280;37372;52.294;5.152;2023-04-21T00:45:29;101608.78;;;7.52;86.25
51289;BME280;37372;52.294;5.152;2023-04-21T00:47:57;101603.16;;;7.54;86.49
51289;BME280;37372;52.294;5.152;2023-04-21T00:50:24;101604.94;;;7.47;86.45
51289;BME280;37372;52.294;5.152;2023-04-21T00:52:49;101603.31;;;7.52;86.31
51289;BME280;37372;52.294;5.152;2023-04-21T00:55:19;101595.53;;;7.49;86.27
51289;BME280;37372;52.294;5.152;2023-04-21T00:57:45;101599.47;;;7.47;86.43
51289;BME280;37372;52.294;5.152;2023-04-21T01:00:11;101590.66;;;7.45;86.75
51289;BME280;37372;52.294;5.152;2023-04-21T01:02:38;101590.19;;;7.41;87.18
51289;BME280;37372;52.294;5.152;2023-04-21T01:05:04;101595.25;;;7.44;87.85
51289;BME280;37372;52.294;5.152;2023-04-21T01:07:34;101587.91;;;7.45;88.27
51289;BME280;37372;52.294;5.152;2023-04-21T01:10:01;101584.81;;;7.48;88.95
51289;BME280;37372;52.294;5.152;2023-04-21T01:12:31;101581.34;;;7.39;88.40
51289;BME280;37372;52.294;5.152;2023-04-21T01:14:57;101579.09;;;7.43;88.87
51289;BME280;37372;52.294;5.152;2023-04-21T01:17:23;101575.59;;;7.34;89.00
51289;BME280;37372;52.294;5.152;2023-04-21T01:19:52;101576.63;;;7.33;89.25
51289;BME280;37372;52.294;5.152;2023-04-21T01:22:20;101569.78;;;7.37;89.62
51289;BME280;37372;52.294;5.152;2023-04-21T01:24:55;101560.75;;;7.37;89.76
51289;BME280;37372;52.294;5.152;2023-04-21T01:27:21;101558.31;;;7.27;89.10
51289;BME280;37372;52.294;5.152;2023-04-21T01:29:49;101558.59;;;7.32;89.97
51289;BME280;37372;52.294;5.152;2023-04-21T01:32:21;101562.75;;;7.28;90.01
51289;BME280;37372;52.294;5.152;2023-04-21T01:34:48;101556.41;;;7.27;90.00
51289;BME280;37372;52.294;5.152;2023-04-21T01:37:16;101556.25;;;7.29;90.22
51289;BME280;37372;52.294;5.152;2023-04-21T01:39:47;101552.06;;;7.33;90.22
51289;BME280;37372;52.294;5.152;2023-04-21T01:42:17;101550.59;;;7.30;90.35
51289;BME280;37372;52.294;5.152;2023-04-21T01:44:44;101557.38;;;7.35;90.12
51289;BME280;37372;52.294;5.152;2023-04-21T01:47:14;101552.28;;;7.31;90.38
51289;BME280;37372;52.294;5.152;2023-04-21T01:49:40;101554.38;;;7.29;90.34
51289;BME280;37372;52.294;5.152;2023-04-21T01:52:06;101544.56;;;7.35;90.92
51289;BME280;37372;52.294;5.152;2023-04-21T01:54:32;101545.22;;;7.37;91.40
51289;BME280;37372;52.294;5.152;2023-04-21T01:56:58;101542.59;;;7.29;90.71
51289;BME280;37372;52.294;5.152;2023-04-21T01:59:24;101542.59;;;7.29;90.74
51289;BME280;37372;52.294;5.152;2023-04-21T02:01:49;101524.53;;;7.28;91.25
51289;BME280;37372;52.294;5.152;2023-04-21T02:04:14;101525.75;;;7.25;90.97
51289;BME280;37372;52.294;5.152;2023-04-21T02:06:40;101531.69;;;7.29;91.36
51289;BME280;37372;52.294;5.152;2023-04-21T02:09:05;101528.75;;;7.30;90.84
51289;BME280;37372;52.294;5.152;2023-04-21T02:11:31;101522.81;;;7.27;91.36
51289;BME280;37372;52.294;5.152;2023-04-21T02:13:56;101522.66;;;7.28;91.12
51289;BME280;37372;52.294;5.152;2023-04-21T02:16:22;101533.38;;;7.30;91.34
51289;BME280;37372;52.294;5.152;2023-04-21T02:18:56;101531.09;;;7.33;92.10
51289;BME280;37372;52.294;5.152;2023-04-21T02:21:23;101524.78;;;7.33;91.51
51289;BME280;37372;52.294;5.152;2023-04-21T02:23:48;101527.00;;;7.23;91.02
51289;BME280;37372;52.294;5.152;2023-04-21T02:26:15;101519.94;;;7.28;92.04
51289;BME280;37372;52.294;5.152;2023-04-21T02:28:46;101525.81;;;7.32;91.93
51289;BME280;37372;52.294;5.152;2023-04-21T02:31:15;101520.16;;;7.33;91.78
51289;BME280;37372;52.294;5.152;2023-04-21T02:33:43;101520.16;;;7.33;91.67
51289;BME280;37372;52.294;5.152;2023-04-21T02:36:09;101523.56;;;7.36;92.08
51289;BME280;37372;52.294;5.152;2023-04-21T02:38:34;101518.75;;;7.38;92.15
51289;BME280;37372;52.294;5.152;2023-04-21T02:41:00;101508.56;;;7.46;91.94
51289;BME280;37372;52.294;5.152;2023-04-21T02:43:25;101504.91;;;7.39;92.27
51289;BME280;37372;52.294;5.152;2023-04-21T02:45:51;101513.28;;;7.38;92.13
51289;BME280;37372;52.294;5.152;2023-04-21T02:48:16;101519.53;;;7.31;91.92
51289;BME280;37372;52.294;5.152;2023-04-21T02:50:50;101512.59;;;7.29;92.09
51289;BME280;37372;52.294;5.152;2023-04-21T02:53:18;101523.03;;;7.25;92.34
51289;BME280;37372;52.294;5.152;2023-04-21T02:55:43;101518.13;;;7.21;92.34
51289;BME280;37372;52.294;5.152;2023-04-21T02:58:09;101511.84;;;7.20;92.69
51289;BME280;37372;52.294;5.152;2023-04-21T03:00:35;101505.38;;;7.21;92.78
51289;BME280;37372;52.294;5.152;2023-04-21T03:03:03;101509.09;;;7.20;92.40
51289;BME280;37372;52.294;5.152;2023-04-21T03:05:36;101520.69;;;7.22;93.06
51289;BME280;37372;52.294;5.152;2023-04-21T03:08:11;101534.59;;;7.27;93.28
51289;BME280;37372;52.294;5.152;2023-04-21T03:10:37;101523.59;;;7.21;92.95
51289;BME280;37372;52.294;5.152;2023-04-21T03:13:03;101520.50;;;7.24;92.69
51289;BME280;37372;52.294;5.152;2023-04-21T03:15:28;101519.00;;;7.21;92.85
51289;BME280;37372;52.294;5.152;2023-04-21T03:17:55;101512.31;;;7.24;93.04
51289;BME280;37372;52.294;5.152;2023-04-21T03:20:27;101503.78;;;7.33;93.55
51289;BME280;37372;52.294;5.152;2023-04-21T03:22:57;101509.84;;;7.29;93.23
51289;BME280;37372;52.294;5.152;2023-04-21T03:25:23;101518.69;;;7.31;93.26
51289;BME280;37372;52.294;5.152;2023-04-21T03:27:58;101512.38;;;7.30;93.31
51289;BME280;37372;52.294;5.152;2023-04-21T03:30:24;101508.59;;;7.31;92.93
51289;BME280;37372;52.294;5.152;2023-04-21T03:32:50;101515.97;;;7.31;93.28
51289;BME280;37372;52.294;5.152;2023-04-21T03:35:16;101510.31;;;7.32;93.37
51289;BME280;37372;52.294;5.152;2023-04-21T03:37:42;101493.09;;;7.32;93.59
51289;BME280;37372;52.294;5.152;2023-04-21T03:40:10;101506.28;;;7.28;93.09
51289;BME280;37372;52.294;5.152;2023-04-21T03:42:35;101492.25;;;7.31;93.67
51289;BME280;37372;52.294;5.152;2023-04-21T03:45:05;101484.97;;;7.39;93.62
51289;BME280;37372;52.294;5.152;2023-04-21T03:47:31;101476.34;;;7.35;93.61
51289;BME280;37372;52.294;5.152;2023-04-21T03:49:56;101489.13;;;7.35;93.88
51289;BME280;37372;52.294;5.152;2023-04-21T03:52:22;101497.69;;;7.31;93.53
51289;BME280;37372;52.294;5.152;2023-04-21T03:54:47;101481.72;;;7.28;93.39
51289;BME280;37372;52.294;5.152;2023-04-21T03:57:13;101502.72;;;7.28;93.62
51289;BME280;37372;52.294;5.152;2023-04-21T03:59:38;101480.88;;;7.28;93.91
51289;BME280;37372;52.294;5.152;2023-04-21T04:02:03;101469.75;;;7.29;94.13
51289;BME280;37372;52.294;5.152;2023-04-21T04:04:32;101483.41;;;7.29;94.11
51289;BME280;37372;52.294;5.152;2023-04-21T04:07:01;101484.88;;;7.32;94.25
51289;BME280;37372;52.294;5.152;2023-04-21T04:09:36;101480.47;;;7.31;94.08
51289;BME280;37372;52.294;5.152;2023-04-21T04:12:10;101472.75;;;7.35;94.24
51289;BME280;37372;52.294;5.152;2023-04-21T04:14:35;101473.78;;;7.33;94.09
51289;BME280;37372;52.294;5.152;2023-04-21T04:17:01;101460.97;;;7.34;94.35
51289;BME280;37372;52.294;5.152;2023-04-21T04:19:30;101470.19;;;7.33;94.26
51289;BME280;37372;52.294;5.152;2023-04-21T04:21:58;101468.44;;;7.25;93.63
51289;BME280;37372;52.294;5.152;2023-04-21T04:24:36;101466.56;;;7.26;93.81
51289;BME280;37372;52.294;5.152;2023-04-21T04:27:11;101466.34;;;7.27;93.84
51289;BME280;37372;52.294;5.152;2023-04-21T04:29:38;101467.59;;;7.25;93.86
51289;BME280;37372;52.294;5.152;2023-04-21T04:32:04;101462.22;;;7.31;94.54
51289;BME280;37372;52.294;5.152;2023-04-21T04:34:33;101461.16;;;7.32;94.45
51289;BME280;37372;52.294;5.152;2023-04-21T04:37:01;101456.75;;;7.31;94.42
51289;BME280;37372;52.294;5.152;2023-04-21T04:39:27;101446.88;;;7.30;94.23
51289;BME280;37372;52.294;5.152;2023-04-21T04:41:53;101466.19;;;7.29;94.02
51289;BME280;37372;52.294;5.152;2023-04-21T04:44:19;101476.25;;;7.28;94.10
51289;BME280;37372;52.294;5.152;2023-04-21T04:46:44;101477.09;;;7.29;94.06
51289;BME280;37372;52.294;5.152;2023-04-21T04:49:09;101472.09;;;7.32;94.50
51289;BME280;37372;52.294;5.152;2023-04-21T04:51:35;101461.16;;;7.32;94.48
51289;BME280;37372;52.294;5.152;2023-04-21T04:54:04;101470.03;;;7.35;94.41
51289;BME280;37372;52.294;5.152;2023-04-21T04:56:30;101469.75;;;7.29;94.24
51289;BME280;37372;52.294;5.152;2023-04-21T04:58:56;101478.38;;;7.33;93.95
51289;BME280;37372;52.294;5.152;2023-04-21T05:01:22;101471.50;;;7.37;94.45
51289;BME280;37372;52.294;5.152;2023-04-21T05:03:54;101466.69;;;7.39;94.30
51289;BME280;37372;52.294;5.152;2023-04-21T05:06:20;101473.00;;;7.40;94.24
51289;BME280;37372;52.294;5.152;2023-04-21T05:08:49;101465.28;;;7.43;94.30
51289;BME280;37372;52.294;5.152;2023-04-21T05:11:14;101461.22;;;7.39;93.64
51289;BME280;37372;52.294;5.152;2023-04-21T05:13:43;101469.84;;;7.36;93.81
51289;BME280;37372;52.294;5.152;2023-04-21T05:16:09;101480.53;;;7.38;93.77
51289;BME280;37372;52.294;5.152;2023-04-21T05:18:38;101473.47;;;7.43;94.21
51289;BME280;37372;52.294;5.152;2023-04-21T05:21:04;101486.53;;;7.48;94.20
51289;BME280;37372;52.294;5.152;2023-04-21T05:23:33;101474.16;;;7.52;93.90
51289;BME280;37372;52.294;5.152;2023-04-21T05:26:01;101461.00;;;7.55;94.35
51289;BME280;37372;52.294;5.152;2023-04-21T05:28:42;101464.63;;;7.63;93.95
51289;BME280;37372;52.294;5.152;2023-04-21T05:31:08;101462.22;;;7.53;93.48
51289;BME280;37372;52.294;5.152;2023-04-21T05:33:41;101472.34;;;7.59;93.95
51289;BME280;37372;52.294;5.152;2023-04-21T05:36:09;101471.13;;;7.62;93.78
51289;BME280;37372;52.294;5.152;2023-04-21T05:38:40;101478.47;;;7.61;93.70
51289;BME280;37372;52.294;5.152;2023-04-21T05:41:13;101490.03;;;7.63;94.04
51289;BME280;37372;52.294;5.152;2023-04-21T05:43:41;101490.03;;;7.63;94.02
51289;BME280;37372;52.294;5.152;2023-04-21T05:46:10;101477.44;;;7.62;93.75
51289;BME280;37372;52.294;5.152;2023-04-21T05:48:44;101469.72;;;7.72;94.17
51289;BME280;37372;52.294;5.152;2023-04-21T05:51:13;101477.50;;;7.69;93.93
51289;BME280;37372;52.294;5.152;2023-04-21T05:53:47;101494.78;;;7.76;93.96
51289;BME280;37372;52.294;5.152;2023-04-21T05:56:13;101487.06;;;7.79;94.02
51289;BME280;37372;52.294;5.152;2023-04-21T05:58:44;101493.53;;;7.78;93.33
51289;BME280;37372;52.294;5.152;2023-04-21T06:01:10;101495.09;;;7.87;93.85
51289;BME280;37372;52.294;5.152;2023-04-21T06:03:37;101492.75;;;7.84;93.56
51289;BME280;37372;52.294;5.152;2023-04-21T06:06:09;101500.34;;;7.89;93.48
51289;BME280;37372;52.294;5.152;2023-04-21T06:08:39;101497.41;;;7.91;93.17
51289;BME280;37372;52.294;5.152;2023-04-21T06:11:05;101496.25;;;8.00;93.61
51289;BME280;37372;52.294;5.152;2023-04-21T06:13:34;101495.84;;;8.03;93.03
51289;BME280;37372;52.294;5.152;2023-04-21T06:16:02;101481.91;;;7.98;92.79
51289;BME280;37372;52.294;5.152;2023-04-21T06:18:33;101482.97;;;7.97;92.72
51289;BME280;37372;52.294;5.152;2023-04-21T06:20:59;101485.97;;;8.02;93.33
51289;BME280;37372;52.294;5.152;2023-04-21T06:23:32;101483.72;;;8.12;93.41
51289;BME280;37372;52.294;5.152;2023-04-21T06:26:01;101498.41;;;8.11;93.08
51289;BME280;37372;52.294;5.152;2023-04-21T06:28:51;101486.22;;;8.07;93.16
51289;BME280;37372;52.294;5.152;2023-04-21T06:31:17;101473.78;;;8.04;92.96
51289;BME280;37372;52.294;5.152;2023-04-21T06:33:52;101483.06;;;8.10;93.02
51289;BME280;37372;52.294;5.152;2023-04-21T06:36:18;101487.91;;;8.08;93.16
51289;BME280;37372;52.294;5.152;2023-04-21T06:38:43;101469.81;;;8.07;93.36
51289;BME280;37372;52.294;5.152;2023-04-21T06:41:09;101478.28;;;8.12;93.00
51289;BME280;37372;52.294;5.152;2023-04-21T06:43:39;101491.31;;;8.17;93.17
51289;BME280;37372;52.294;5.152;2023-04-21T06:46:05;101483.38;;;8.22;92.94
51289;BME280;37372;52.294;5.152;2023-04-21T06:48:54;101492.66;;;8.27;93.18
51289;BME280;37372;52.294;5.152;2023-04-21T06:51:20;101487.91;;;8.36;92.97
51289;BME280;37372;52.294;5.152;2023-04-21T06:53:50;101488.09;;;8.34;92.40
51289;BME280;37372;52.294;5.152;2023-04-21T06:56:22;101487.78;;;8.44;92.72
51289;BME280;37372;52.294;5.152;2023-04-21T06:58:47;101487.72;;;8.37;91.85
51289;BME280;37372;52.294;5.152;2023-04-21T07:01:13;101483.28;;;8.36;92.22
51289;BME280;37372;52.294;5.152;2023-04-21T07:03:49;101480.41;;;8.45;91.84
51289;BME280;37372;52.294;5.152;2023-04-21T07:06:27;101480.22;;;8.53;91.32
51289;BME280;37372;52.294;5.152;2023-04-21T07:09:05;101479.44;;;8.59;91.31
51289;BME280;37372;52.294;5.152;2023-04-21T07:11:30;101471.63;;;8.56;91.34
51289;BME280;37372;52.294;5.152;2023-04-21T07:13:58;101469.72;;;8.56;91.32
51289;BME280;37372;52.294;5.152;2023-04-21T07:16:27;101471.22;;;8.59;91.43
51289;BME280;37372;52.294;5.152;2023-04-21T07:18:54;101476.09;;;8.63;91.36
51289;BME280;37372;52.294;5.152;2023-04-21T07:21:19;101477.38;;;8.67;90.68
51289;BME280;37372;52.294;5.152;2023-04-21T07:24:41;101472.38;;;8.78;90.19
51289;BME280;37372;52.294;5.152;2023-04-21T07:26:45;101473.03;;;8.86;90.03
51289;BME280;37372;52.294;5.152;2023-04-21T07:29:10;101471.59;;;8.90;89.92
51289;BME280;37372;52.294;5.152;2023-04-21T07:31:36;101463.63;;;9.02;90.51
51289;BME280;37372;52.294;5.152;2023-04-21T07:34:10;101472.72;;;9.16;90.23
51289;BME280;37372;52.294;5.152;2023-04-21T07:36:38;101477.59;;;9.34;90.05
51289;BME280;37372;52.294;5.152;2023-04-21T07:39:18;101473.22;;;9.66;88.64
51289;BME280;37372;52.294;5.152;2023-04-21T07:41:45;101482.09;;;9.74;87.86
51289;BME280;37372;52.294;5.152;2023-04-21T07:44:11;101481.47;;;9.86;87.67
51289;BME280;37372;52.294;5.152;2023-04-21T07:46:36;101480.81;;;9.97;86.58
51289;BME280;37372;52.294;5.152;2023-04-21T07:49:11;101477.03;;;9.91;88.32
51289;BME280;37372;52.294;5.152;2023-04-21T07:51:36;101476.38;;;10.09;88.33
51289;BME280;37372;52.294;5.152;2023-04-21T07:54:23;101479.13;;;10.09;87.29
51289;BME280;37372;52.294;5.152;2023-04-21T07:56:49;101471.34;;;9.93;87.25
51289;BME280;37372;52.294;5.152;2023-04-21T07:59:20;101477.69;;;9.93;87.52
51289;BME280;37372;52.294;5.152;2023-04-21T08:01:52;101472.81;;;10.09;87.75
51289;BME280;37372;52.294;5.152;2023-04-21T08:04:18;101477.88;;;10.12;87.38
51289;BME280;37372;52.294;5.152;2023-04-21T08:06:44;101479.34;;;10.27;85.88
51289;BME280;37372;52.294;5.152;2023-04-21T08:09:34;101478.94;;;10.30;85.94
51289;BME280;37372;52.294;5.152;2023-04-21T08:11:59;101474.91;;;10.13;85.31
51289;BME280;37372;52.294;5.152;2023-04-21T08:14:26;101467.31;;;10.22;85.98
51289;BME280;37372;52.294;5.152;2023-04-21T08:16:52;101476.84;;;10.26;84.91
51289;BME280;37372;52.294;5.152;2023-04-21T08:19:18;101469.44;;;10.26;85.34
51289;BME280;37372;52.294;5.152;2023-04-21T08:21:45;101470.88;;;10.22;85.08
51289;BME280;37372;52.294;5.152;2023-04-21T08:24:15;101460.78;;;10.29;85.34
51289;BME280;37372;52.294;5.152;2023-04-21T08:26:41;101466.25;;;10.36;84.59
51289;BME280;37372;52.294;5.152;2023-04-21T08:29:29;101479.97;;;10.29;83.89
51289;BME280;37372;52.294;5.152;2023-04-21T08:31:55;101477.69;;;10.26;83.77
51289;BME280;37372;52.294;5.152;2023-04-21T08:34:21;101485.47;;;10.29;84.56
51289;BME280;37372;52.294;5.152;2023-04-21T08:36:47;101487.34;;;10.42;83.20
51289;BME280;37372;52.294;5.152;2023-04-21T08:39:17;101489.25;;;10.35;83.28
51289;BME280;37372;52.294;5.152;2023-04-21T08:41:46;101487.56;;;10.34;81.97
51289;BME280;37372;52.294;5.152;2023-04-21T08:44:34;101491.13;;;10.48;83.74
51289;BME280;37372;52.294;5.152;2023-04-21T08:47:09;101482.50;;;10.44;81.92
51289;BME280;37372;52.294;5.152;2023-04-21T08:49:36;101491.28;;;10.66;83.59
51289;BME280;37372;52.294;5.152;2023-04-21T08:52:03;101484.81;;;11.05;82.91
51289;BME280;37372;52.294;5.152;2023-04-21T08:54:48;101488.44;;;10.99;81.04
51289;BME280;37372;52.294;5.152;2023-04-21T08:57:17;101486.19;;;10.83;81.71
51289;BME280;37372;52.294;5.152;2023-04-21T08:59:43;101489.16;;;10.75;82.58
51289;BME280;37372;52.294;5.152;2023-04-21T09:02:19;101489.84;;;10.64;82.12
51289;BME280;37372;52.294;5.152;2023-04-21T09:04:50;101486.91;;;10.52;82.82
51289;BME280;37372;52.294;5.152;2023-04-21T09:07:36;101483.31;;;10.51;82.40
51289;BME280;37372;52.294;5.152;2023-04-21T09:10:04;101487.06;;;10.77;80.59
51289;BME280;37372;52.294;5.152;2023-04-21T09:12:30;101483.44;;;10.83;80.76
51289;BME280;37372;52.294;5.152;2023-04-21T09:14:56;101483.66;;;10.75;80.94
51289;BME280;37372;52.294;5.152;2023-04-21T09:17:30;101478.56;;;10.85;81.03
51289;BME280;37372;52.294;5.152;2023-04-21T09:22:40;101476.19;;;11.02;80.84
51289;BME280;37372;52.294;5.152;2023-04-21T09:25:06;101471.69;;;11.46;80.59
51289;BME280;37372;52.294;5.152;2023-04-21T09:27:35;101473.69;;;11.63;78.02
51289;BME280;37372;52.294;5.152;2023-04-21T09:30:05;101470.34;;;11.61;79.14
51289;BME280;37372;52.294;5.152;2023-04-21T09:32:35;101467.47;;;11.75;77.95
51289;BME280;37372;52.294;5.152;2023-04-21T09:35:02;101471.53;;;11.65;78.59
51289;BME280;37372;52.294;5.152;2023-04-21T09:37:31;101477.88;;;11.98;77.45
51289;BME280;37372;52.294;5.152;2023-04-21T09:39:59;101471.69;;;11.77;76.48
51289;BME280;37372;52.294;5.152;2023-04-21T09:42:29;101475.66;;;11.88;76.46
51289;BME280;37372;52.294;5.152;2023-04-21T09:44:55;101466.94;;;11.66;76.01
51289;BME280;37372;52.294;5.152;2023-04-21T09:47:21;101472.97;;;11.81;75.74
51289;BME280;37372;52.294;5.152;2023-04-21T09:49:51;101464.75;;;12.25;75.40
51289;BME280;37372;52.294;5.152;2023-04-21T09:52:27;101456.59;;;11.93;73.70
51289;BME280;37372;52.294;5.152;2023-04-21T09:54:56;101468.31;;;12.07;75.74
51289;BME280;37372;52.294;5.152;2023-04-21T09:57:32;101464.25;;;12.53;74.61
51289;BME280;37372;52.294;5.152;2023-04-21T10:00:06;101469.00;;;12.20;73.37
51289;BME280;37372;52.294;5.152;2023-04-21T10:02:36;101462.41;;;11.72;75.42
51289;BME280;37372;52.294;5.152;2023-04-21T10:05:04;101452.06;;;11.74;76.38
51289;BME280;37372;52.294;5.152;2023-04-21T10:07:31;101454.44;;;11.63;75.20
51289;BME280;37372;52.294;5.152;2023-04-21T10:09:58;101451.41;;;11.47;76.83
51289;BME280;37372;52.294;5.152;2023-04-21T10:12:27;101457.66;;;11.60;76.75
51289;BME280;37372;52.294;5.152;2023-04-21T10:15:04;101445.59;;;11.30;77.48
51289;BME280;37372;52.294;5.152;2023-04-21T10:17:34;101458.19;;;11.44;77.31
51289;BME280;37372;52.294;5.152;2023-04-21T10:20:06;101460.38;;;11.35;78.00
51289;BME280;37372;52.294;5.152;2023-04-21T10:22:34;101455.38;;;11.19;77.86
51289;BME280;37372;52.294;5.152;2023-04-21T10:25:03;101470.00;;;11.06;78.23
51289;BME280;37372;52.294;5.152;2023-04-21T10:27:38;101465.94;;;11.22;78.12
51289;BME280;37372;52.294;5.152;2023-04-21T10:30:19;101454.22;;;11.40;77.84
51289;BME280;37372;52.294;5.152;2023-04-21T10:32:45;101456.03;;;11.78;76.80
51289;BME280;37372;52.294;5.152;2023-04-21T10:35:20;101457.00;;;11.90;76.09
51289;BME280;37372;52.294;5.152;2023-04-21T10:37:48;101459.16;;;12.13;74.64
51289;BME280;37372;52.294;5.152;2023-04-21T10:40:32;101448.72;;;12.40;73.68
51289;BME280;37372;52.294;5.152;2023-04-21T10:43:02;101445.34;;;12.19;73.45
51289;BME280;37372;52.294;5.152;2023-04-21T10:45:29;101431.97;;;12.41;74.17
51289;BME280;37372;52.294;5.152;2023-04-21T10:47:58;101448.31;;;12.55;74.09
51289;BME280;37372;52.294;5.152;2023-04-21T10:50:32;101440.53;;;12.33;72.71
51289;BME280;37372;52.294;5.152;2023-04-21T10:55:30;101437.91;;;12.20;74.46
51289;BME280;37372;52.294;5.152;2023-04-21T10:57:57;101433.38;;;12.51;73.61
51289;BME280;37372;52.294;5.152;2023-04-21T11:00:26;101432.97;;;12.65;72.38
51289;BME280;37372;52.294;5.152;2023-04-21T11:03:03;101431.81;;;12.73;72.65
51289;BME280;37372;52.294;5.152;2023-04-21T11:05:35;101431.28;;;12.64;72.24
51289;BME280;37372;52.294;5.152;2023-04-21T11:08:08;101421.63;;;12.73;72.63
51289;BME280;37372;52.294;5.152;2023-04-21T11:11:00;101417.63;;;12.88;71.38
51289;BME280;37372;52.294;5.152;2023-04-21T11:13:27;101416.00;;;12.98;71.27
51289;BME280;37372;52.294;5.152;2023-04-21T11:16:05;101414.03;;;12.87;70.91
51289;BME280;37372;52.294;5.152;2023-04-21T11:18:37;101413.53;;;12.79;71.23
51289;BME280;37372;52.294;5.152;2023-04-21T11:24:02;101407.28;;;12.71;71.32
51289;BME280;37372;52.294;5.152;2023-04-21T11:26:36;101390.28;;;13.05;70.46
51289;BME280;37372;52.294;5.152;2023-04-21T11:29:07;101391.50;;;13.27;70.10
51289;BME280;37372;52.294;5.152;2023-04-21T11:31:36;101377.59;;;13.04;67.99
51289;BME280;37372;52.294;5.152;2023-04-21T11:34:02;101381.41;;;12.72;70.74
51289;BME280;37372;52.294;5.152;2023-04-21T11:36:38;101381.00;;;12.87;70.41
51289;BME280;37372;52.294;5.152;2023-04-21T11:39:10;101390.44;;;12.80;70.89
51289;BME280;37372;52.294;5.152;2023-04-21T11:41:43;101394.09;;;12.73;71.32
51289;BME280;37372;52.294;5.152;2023-04-21T11:44:29;101391.91;;;12.64;71.55
51289;BME280;37372;52.294;5.152;2023-04-21T11:47:26;101384.44;;;12.53;70.94
51289;BME280;37372;52.294;5.152;2023-04-21T11:49:55;101382.06;;;12.38;71.53
51289;BME280;37372;52.294;5.152;2023-04-21T11:52:22;101377.84;;;12.54;71.87
51289;BME280;37372;52.294;5.152;2023-04-21T11:55:01;101373.00;;;12.67;70.84
51289;BME280;37372;52.294;5.152;2023-04-21T11:57:28;101372.75;;;12.39;71.87
51289;BME280;37372;52.294;5.152;2023-04-21T12:00:00;101370.50;;;12.47;72.24
51289;BME280;37372;52.294;5.152;2023-04-21T12:02:27;101369.63;;;12.84;71.63
51289;BME280;37372;52.294;5.152;2023-04-21T12:05:04;101360.59;;;13.37;69.69
51289;BME280;37372;52.294;5.152;2023-04-21T12:07:32;101358.72;;;13.61;69.01
51289;BME280;37372;52.294;5.152;2023-04-21T12:10:33;101349.56;;;13.37;67.90
51289;BME280;37372;52.294;5.152;2023-04-21T12:12:59;101342.75;;;13.51;68.37
51289;BME280;37372;52.294;5.152;2023-04-21T12:15:25;101344.44;;;13.99;67.29
51289;BME280;37372;52.294;5.152;2023-04-21T12:17:52;101338.97;;;14.51;64.75
51289;BME280;37372;52.294;5.152;2023-04-21T12:20:20;101340.72;;;13.93;66.23
51289;BME280;37372;52.294;5.152;2023-04-21T12:22:50;101329.59;;;13.53;66.95
51289;BME280;37372;52.294;5.152;2023-04-21T12:25:22;101333.16;;;13.89;66.93
51289;BME280;37372;52.294;5.152;2023-04-21T12:27:50;101333.03;;;13.95;66.44
51289;BME280;37372;52.294;5.152;2023-04-21T12:30:19;101332.94;;;13.90;67.03
51289;BME280;37372;52.294;5.152;2023-04-21T12:32:45;101330.53;;;13.94;67.56
51289;BME280;37372;52.294;5.152;2023-04-21T12:35:12;101323.59;;;13.91;65.88
51289;BME280;37372;52.294;5.152;2023-04-21T12:37:38;101321.44;;;13.93;66.42
51289;BME280;37372;52.294;5.152;2023-04-21T12:40:11;101313.84;;;14.00;65.25
51289;BME280;37372;52.294;5.152;2023-04-21T12:42:36;101310.59;;;14.15;64.29
51289;BME280;37372;52.294;5.152;2023-04-21T12:45:07;101314.25;;;14.44;64.86
51289;BME280;37372;52.294;5.152;2023-04-21T12:47:33;101306.28;;;14.07;65.22
51289;BME280;37372;52.294;5.152;2023-04-21T12:50:02;101304.50;;;14.01;65.25
51289;BME280;37372;52.294;5.152;2023-04-21T12:52:35;101291.81;;;14.29;65.00
51289;BME280;37372;52.294;5.152;2023-04-21T12:55:22;101292.16;;;14.44;64.45
51289;BME280;37372;52.294;5.152;2023-04-21T12:57:49;101289.09;;;14.69;63.98
51289;BME280;37372;52.294;5.152;2023-04-21T13:00:15;101284.78;;;15.24;61.50
51289;BME280;37372;52.294;5.152;2023-04-21T13:02:41;101274.03;;;14.94;60.92
51289;BME280;37372;52.294;5.152;2023-04-21T13:05:13;101272.72;;;15.13;61.24
51289;BME280;37372;52.294;5.152;2023-04-21T13:07:39;101269.88;;;14.91;61.59
51289;BME280;37372;52.294;5.152;2023-04-21T13:10:16;101273.03;;;14.83;63.07
51289;BME280;37372;52.294;5.152;2023-04-21T13:13:03;101276.31;;;14.40;63.23
51289;BME280;37372;52.294;5.152;2023-04-21T13:15:29;101255.91;;;14.12;63.82